This is the latest recevied weather packets stored in our database for station/object KE8GJZ-1. If no packets are shown the sender has not sent any weather packets the latest 10 day(s).
| Time | Temp. | Humidity | Pressure | Rain* | Wind** | Luminosity | Snow |
|---|---|---|---|---|---|---|---|
| 1777665995 | 10.56° C | 51% | 1012.2 hPa | 0 mm | - | 207 W/m² | - |
| 1777665692 | 10° C | 51% | 1012.2 hPa | 0 mm | - | 208 W/m² | - |
| 1777665390 | 10° C | 50% | 1012.1 hPa | 0 mm | - | 210 W/m² | - |
| 1777665085 | 10.56° C | 50% | 1012 hPa | 0 mm | - | 202 W/m² | - |
| 1777664781 | 10° C | 50% | 1011.9 hPa | 0 mm | - | 163 W/m² | - |
| 1777664174 | 10.56° C | 51% | 1012.3 hPa | 0 mm | - | 172 W/m² | - |
| 1777663873 | 10.56° C | 52% | 1012 hPa | 0 mm | - | 194 W/m² | - |
| 1777663569 | 10.56° C | 51% | 1012.1 hPa | 0 mm | - | 272 W/m² | - |
| 1777663267 | 10.56° C | 49% | 1012 hPa | 0 mm | - | 243 W/m² | - |
| 1777662964 | 10° C | 52% | 1012 hPa | 0 mm | - | 204 W/m² | - |
| 1777662357 | 10.56° C | 48% | 1012.1 hPa | 0 mm | - | 194 W/m² | - |
| 1777661445 | 10.56° C | 49% | 1012.1 hPa | 0 mm | - | 258 W/m² | - |
| 1777660538 | 11.11° C | 51% | 1011.7 hPa | 0 mm | - | 201 W/m² | - |
| 1777660234 | 10.56° C | 51% | 1011.8 hPa | 0 mm | - | 437 W/m² | - |
| 1777659931 | 11.67° C | 49% | 1011.7 hPa | 0 mm | - | 276 W/m² | - |
| 1777659628 | 10.56° C | 51% | 1011.7 hPa | 0 mm | - | 389 W/m² | - |
| 1777659325 | 10.56° C | 50% | 1011.9 hPa | 0 mm | - | 524 W/m² | - |
| 1777659021 | 10.56° C | 52% | 1011.9 hPa | 0 mm | - | 273 W/m² | - |
| 1777655989 | 13.33° C | 43% | 1011.5 hPa | 0 mm | - | 447 W/m² | - |
| 1777654474 | 10.56° C | 48% | 1011.7 hPa | 0 mm | - | 332 W/m² | - |
| 1777653565 | 10.56° C | 51% | 1011.7 hPa | 0 mm | - | 249 W/m² | - |
| 1777653261 | 10° C | 54% | 1011.9 hPa | 0 mm | - | 261 W/m² | - |
| 1777652654 | 9.44° C | 57% | 1011.6 hPa | 0 mm | - | 187 W/m² | - |
| 1777652352 | 9.44° C | 56% | 1011.8 hPa | 0 mm | - | 148 W/m² | - |
| 1777652049 | 9.44° C | 55% | 1011.7 hPa | 0 mm | - | 117 W/m² | - |
* Rain latest hour (hover to see other rain measurements)
** Current wind speed in m/s (hover to see current wind gust speed)